White Mountain Summit Weather observations

Data are for 10 minute period ending at time listed.
 Day   Time   Solar   Ave.   Ave.  Ave.  Vector    Max.    Baro.  
  of    of     Rad.   Air    Rel.  Wind   Wind     Wind   Press.  
Year   Day            Temp.  Hum.  Speed  Dir.     Gust           
2015   (PST)   W/m2    F      %     mph   deg.      mph     mb.   
-------------------------------------------------------------------
 210   14:40    0.0    55   23.6    11    267.7    18.8   470.1 
 210   14:50    0.0    55   23.2    12    273.0    23.5   474.0 
 210   15:00    0.0    55   23.0     9    266.7    16.5   475.7 
 210   15:10    0.0    55   22.8    10    267.7    23.5   475.2 
 210   15:20    0.0    55   22.4    12    266.7    18.8   476.1 
 210   15:30    0.0    55   22.3    14    270.1    25.9   475.6 
 210   15:40    0.0    55   21.8    15    263.5    21.2   476.0 
 210   15:50    0.0    55   21.8    14    262.5    23.5   476.9 
 210   16:00    0.0    55   22.0    11    257.2    16.5   476.6 
 210   16:10    0.0    55   22.0    13    263.4    23.5   475.9 
 210   16:20    0.0    55   22.2    16    266.1    23.5   474.6 
 210   16:30    0.0    55   22.4    12    258.6    18.8   475.7 
 210   16:40    0.0    55   23.0    12    267.2    23.5   475.6 
 210   16:50    0.0    55   23.3    16    269.3    23.5   475.0 
 210   17:00    0.0    55   23.5    17    267.3    25.9   474.1 
 210   17:10    0.0    55   23.7    18    268.2    25.9   467.6 
 210   17:20    0.0    54   24.2    13    260.1    21.2   460.0 
 210   17:30    0.0    54   24.6    14    264.4    21.2   454.3 
 210   17:40    0.0    54   24.5    14    261.7    18.8   449.1 
 210   17:50    0.0    53   25.6    14    267.5    21.2   444.7 
 210   18:00    0.0    52   25.9    11    261.3    21.2   442.1 
 210   18:10    0.0    52   25.8    10    269.4    18.8   440.1 
 210   18:20    0.0    52   25.9    11    267.3    16.5   435.3 
 210   18:30    0.0    51   26.9    10    258.1    18.8   430.9 
 210   18:40    0.0    50   27.1     8    258.9    16.5   427.0 
 210   18:50    0.0    50   28.7     6     33.3     9.4   425.1 
 210   19:00    0.0    51   27.3     5     51.4     9.4   423.2 
 210   19:10    0.0    50   28.2     6     46.8     9.4   422.2 
 210   19:20    0.0    50   27.5     4     67.2     9.4   422.0 
 210   19:30    0.0    49   27.8     3     64.6     4.7   421.7 
 210   19:40    0.0    48   29.0     3     58.7     4.7   421.4 
 210   19:50    0.0    48   29.3     1     58.3     4.7   421.0 
 210   20:00    0.0    48   30.0     3     58.3     7.1   421.1 
 210   20:10    0.0    47   30.4     3     52.2     9.4   421.1 
 210   20:20    0.0    47   29.8     2    345.4     4.7   420.6 
 210   20:30    0.0    46   30.5     8     67.9    11.8   420.8 
 210   20:40    0.0    46   31.3    10     62.0    16.5   420.4 
 210   20:50    0.0    45   31.9    14     59.4    18.8   420.5 
 210   21:00    0.0    45   32.1    14     54.0    21.2   420.3 
 210   21:10    0.0    45   32.6     7     27.9    11.8   421.7 
 210   21:20    0.0    44   32.2     8     62.4    14.1   420.7 
 210   21:30    0.0    43   33.2     5     53.3     9.4   420.6 
 210   21:40    0.0    44   32.7     6     73.7     9.4   420.7 
 210   21:50    0.0    43   33.1     8     62.3    11.8   420.4 
 210   22:00    0.0    44   33.0     6     59.4    11.8   420.8 
 210   22:10    0.0    43   32.7     4     77.4     7.1   420.4 
 210   22:20    0.0    43   33.0     3     70.6     4.7   420.5 
 210   22:30    0.0    43   33.5     6     60.9     9.4   420.7 
 210   22:40    0.0    43   33.4     4     61.9     4.7   420.4 
 210   22:50    0.0    43   33.6     1     64.1     2.4   420.5 
 210   23:00    0.0    43   33.9     3     51.8     9.4   420.7 
 210   23:10    0.0    42   35.6     4     55.3     9.4   420.7 
 210   23:20    0.0    42   36.0     4     63.7     7.1   420.6 
 210   23:30    0.0    42   36.4     4     59.2     7.1   420.4 
 210   23:40    0.0    42   37.4     2    340.5     7.1   420.4 
 210   23:50    0.0    42   38.1     2    316.2     2.4   420.6 
 211    0:00    0.0    42   38.8     2    349.3     4.7   420.9 
 211    0:10    0.0    42   38.4     5     48.6     9.4   420.4 
 211    0:20    0.0    41   37.4     4     39.2     9.4   420.2 
 211    0:30    0.0    41   38.0     2    306.5     4.7   419.9 
 211    0:40    0.0    41   37.9     2    302.5     4.7   420.0 
 211    0:50    0.0    41   37.6     3    337.7     7.1   419.6 
 211    1:00    0.0    41   38.3     5     73.7    11.8   419.3 
 211    1:10    0.0    40   38.3     3    205.2     7.1   419.5 
 211    1:20    0.0    40   37.8     3    298.3     4.7   419.2 
 211    1:30    0.0    40   36.8     4     45.1     7.1   419.6 
 211    1:40    0.0    40   36.4     4     99.1     9.4   419.1 
 211    1:50    0.0    40   36.7     8     91.2    16.5   419.1 
 211    2:00    0.0    40   37.9     8    107.6    14.1   418.8 
 211    2:10    0.0    40   38.5    12    110.3    16.5   418.3 
 211    2:20    0.0    40   39.5    14    113.4    18.8   417.9 
 211    2:30    0.0    39   40.3    15    113.4    18.8   417.8 
 211    2:40    0.0    39   40.7    16    112.8    21.2   417.7 
 211    2:50    0.0    39   40.4    15    107.6    21.2   418.1 
 211    3:00    0.0    39   40.3    20    115.6    23.5   417.8 
 211    3:10    0.0    39   40.8    14    108.3    18.8   417.4 
 211    3:20    0.0    39   42.0    13    106.2    18.8   417.6 
 211    3:30    0.0    39   42.2    14    108.0    18.8   417.1 
 211    3:40    0.0    39   42.1    11    104.1    14.1   417.1 
 211    3:50    0.0    38   42.0    10     97.5    14.1   416.9 
 211    4:00    0.0    38   42.0     9    102.2    11.8   417.0 
 211    4:10    0.0    38   42.0    15    110.8    18.8   416.5 
 211    4:20    0.0    38   42.4    15    108.9    18.8   415.4 
 211    4:30    0.0    38   42.7    19    115.2    21.2   415.7 
 211    4:40    0.0    38   42.4    21    122.4    23.5   416.5 
 211    4:50    0.0    38   43.2    20    120.2    23.5   415.9 
 211    5:00    0.0    38   43.9    19    114.7    21.2   416.2 
 211    5:10    0.0    38   44.9    18    112.4    21.2   416.2 
 211    5:20    0.0    38   45.5    20    116.7    21.2   416.0 
 211    5:30    0.0    38   45.2    21    122.1    23.5   416.0 
 211    5:40    0.0    38   45.6    21    125.1    23.5   416.6 
 211    5:50    0.0    39   45.6    19    125.0    21.2   416.8 
 211    6:00    0.0    39   45.2    18    116.1    18.8   416.5 
 211    6:10    0.0    39   45.2    15    108.5    21.2   416.7 
 211    6:20    0.0    39   45.8     7     86.1    11.8   417.0 
 211    6:30    0.0    40   45.9     8     88.7    11.8   416.8 
 211    6:40    0.0    40   45.5     6     74.1     9.4   417.3 
 211    6:50    0.0    40   44.5     6     66.8     9.4   418.5 
 211    7:00    0.0    40   43.9     8     83.7    18.8   420.0 
 211    7:10    0.0    40   41.2     8    102.2    21.2   424.6 
 211    7:20    0.0    41   42.5    12    105.0    21.2   428.6 
 211    7:30    0.0    42   42.5    11    100.7    21.2   434.4 
 211    7:40    0.0    42   41.9     9     94.8    16.5   439.0 
 211    7:50    0.0    43   39.6     7     71.7    14.1   441.1 
 211    8:00    0.0    43   40.5     8     80.7    14.1   445.1 
 211    8:10    0.0    43   39.8     7     81.8    14.1   450.2 
 211    8:20    0.0    44   40.8     9     85.7    16.5   462.2 
 211    8:30    0.0    44   41.5     7     77.2    11.8   469.4 
 211    8:40    0.0    45   40.4     7     87.3    14.1   469.7 
 211    8:50    0.0    46   38.8     7     89.7    14.1   470.0 
 211    9:00    0.0    46   38.6     8     94.1    11.8   469.5 
 211    9:10    0.0    46   40.8     8     98.6    14.1   470.6 
 211    9:20    0.0    47   39.6     7     78.1    11.8   469.8 
 211    9:30    0.0    47   37.6     8     94.2    16.5   470.0 
 211    9:40    0.0    47   37.0     9    110.0    14.1   470.8 
 211    9:50    0.0    48   37.4     8    108.8    14.1   470.3 
 211   10:00    0.0    48   38.3     9    102.0    18.8   469.0 
 211   10:10    0.0    49   36.8     8    106.2    16.5   469.5 
 211   10:20    0.0    49   36.6     7     79.9    14.1   469.8 
 211   10:30    0.0    50   36.5     8    101.3    18.8   469.8 
 211   10:40    0.0    50   34.6    13    114.5    23.5   469.7 
 211   10:50    0.0    50   33.6     9    114.7    14.1   469.9 
 211   11:00    0.0    51   32.7     9    126.6    16.5   469.5 
 211   11:10    0.0    51   33.9     9    124.3    16.5   470.1 
 211   11:20    0.0    50   33.6     9    107.3    16.5   470.7 
 211   11:30    0.0    51   33.0    10    111.3    14.1   470.2 
 211   11:40    0.0    53   31.2     7     84.4    16.5   470.5 
 211   11:50    0.0    54   30.2     7    115.8    14.1   471.1 
 211   12:00    0.0    54   33.5     7     72.9    14.1   471.0 
 211   12:10    0.0    54   30.5     8    118.0    16.5   471.0 
 211   12:20    0.0    54   30.3     7     87.4    11.8   471.8 
 211   12:30    0.0    54   31.8     7     48.5    14.1   472.3 
 211   12:40    0.0    56   29.8     8    106.7    14.1   471.2 
 211   12:50    0.0    54   29.7     8     55.1    16.5   470.4 
 211   13:00    0.0    56   30.4     6     41.3    11.8   471.8 
 211   13:10    0.0    55   29.8     6    102.9    11.8   471.9 
 211   13:20    0.0    55   31.6     5     53.3     9.4   471.7 
 211   13:30    0.0    55   33.4     5     48.4    11.8   471.6 
 211   13:40    0.0    54   30.8     9    103.4    18.8   470.8 
 211   13:50    0.0    55   33.8     7     28.3    11.8   472.7 
 211   14:00    0.0    54   33.5     8     56.5    11.8   462.2 
 211   14:10    0.0    52   36.8     5     51.7     9.4   456.7 
 211   14:20    0.0    52   40.2     7     63.1    14.1   471.2 
 211   14:30    0.0    53   40.0     8     24.8    14.1   475.5 

Return to White Mountain graphs page.


Western Regional Climate Center,wrcc@dri.edu